CheckWX is a tool to help pilots better visualize weather data.  It is not intended as a substitute for an official pre-flight weather briefing.

06:41:16 UTC

LFCR TAF
Rodez-Marcillac Airport
Rodez/Marcillac, France
TAF LFCR 041100Z 0412/0512 29010KT CAVOK

Jul-4@
12:00 UTC

Jul-4 @ 12:00 UTC

Jul-5@
12:00 UTC

Jul-5 @ 12:00 UTC

TAF LFCR 041100Z 0412/0512 29010KT CAVOK
Wind
  • 290° at 10 KTS
Conditions
No significant weather
Cloud Levels
  • No significant clouds